createdAt,value
2023-04-27T00:01:22.737Z,100878.31
2023-04-27T00:03:49.627Z,100876.69
2023-04-27T00:06:16.534Z,100880.41
2023-04-27T00:08:43.282Z,100881.94
2023-04-27T00:11:10.098Z,100879.72
2023-04-27T00:13:36.814Z,100881.47
2023-04-27T00:16:04.078Z,100877.06
2023-04-27T00:18:31.254Z,100875.69
2023-04-27T00:20:59.348Z,100879.63
2023-04-27T00:23:26.431Z,100874.75
2023-04-27T00:25:53.181Z,100877.66
2023-04-27T00:28:19.928Z,100870.69
2023-04-27T00:30:46.698Z,100864.78
2023-04-27T00:33:13.498Z,100865.56
2023-04-27T00:35:40.690Z,100867.44
2023-04-27T00:38:07.444Z,100865.56
2023-04-27T00:40:34.258Z,100867.09
2023-04-27T00:43:01.176Z,100869.63
2023-04-27T00:45:28.134Z,100870.13
2023-04-27T00:47:55.794Z,100867.22
2023-04-27T00:50:29.462Z,100865.56
2023-04-27T00:52:59.595Z,100866.16
2023-04-27T00:55:26.404Z,100871.50
2023-04-27T00:57:53.199Z,100870.91
2023-04-27T01:00:19.926Z,100872.56
2023-04-27T01:02:47.861Z,100869.31
2023-04-27T01:05:17.607Z,100878.34
2023-04-27T01:07:46.489Z,100881.28
2023-04-27T01:10:13.150Z,100881.28
2023-04-27T01:12:39.904Z,100882.09
2023-04-27T01:15:07.572Z,100877.91
2023-04-27T01:17:34.396Z,100880.78
2023-04-27T01:20:02.497Z,100887.44
2023-04-27T01:22:29.303Z,100878.84
2023-04-27T01:24:58.885Z,100888.94
2023-04-27T01:27:25.741Z,100885.47
2023-04-27T01:29:52.409Z,100891.03
2023-04-27T01:32:19.142Z,100884.75
2023-04-27T01:34:45.867Z,100880.19
2023-04-27T01:37:12.622Z,100884.28
2023-04-27T01:39:39.326Z,100878.69
2023-04-27T01:42:07.932Z,100878.69
2023-04-27T01:44:34.983Z,100876.72
2023-04-27T01:47:01.909Z,100890.19
2023-04-27T01:49:28.638Z,100886.84
2023-04-27T01:51:56.457Z,100878.69
2023-04-27T01:54:28.088Z,100881.84
2023-04-27T01:56:56.026Z,100882.75
2023-04-27T01:59:22.662Z,100890.63
2023-04-27T02:01:49.293Z,100889.44
2023-04-27T02:04:16.349Z,100885.03
2023-04-27T02:06:43.201Z,100896.75
2023-04-27T02:09:09.894Z,100886.88
2023-04-27T02:11:40.074Z,100898.38
2023-04-27T02:14:07.299Z,100895.94
2023-04-27T02:16:35.224Z,100887.94
2023-04-27T02:19:03.287Z,100886.06
2023-04-27T02:21:30.256Z,100892.44
2023-04-27T02:23:56.999Z,100890.81
2023-04-27T02:26:29.187Z,100897.34
2023-04-27T02:28:57.150Z,100901.66
2023-04-27T02:31:24.391Z,100901.09
2023-04-27T02:33:51.307Z,100897.84
2023-04-27T02:36:17.958Z,100905.75
2023-04-27T02:38:44.713Z,100901.94
2023-04-27T02:41:11.332Z,100900.19
2023-04-27T02:43:38.019Z,100904.63
2023-04-27T02:46:06.328Z,100911.13
2023-04-27T02:48:33.520Z,100906.94
2023-04-27T02:51:04.145Z,100911.22
2023-04-27T02:53:30.801Z,100902.75
2023-04-27T02:55:58.437Z,100898.56
2023-04-27T02:58:25.142Z,100905.66
2023-04-27T03:00:56.156Z,100910.75
2023-04-27T03:03:23.901Z,100905.88
2023-04-27T03:05:50.859Z,100910.06
2023-04-27T03:08:17.564Z,100903.56
2023-04-27T03:10:44.311Z,100908.09
2023-04-27T03:13:11.222Z,100910.19
2023-04-27T03:15:38.136Z,100905.88
2023-04-27T03:18:05.169Z,100904.84
2023-04-27T03:20:32.182Z,100903.56
2023-04-27T03:22:58.961Z,100909.28
2023-04-27T03:25:26.121Z,100903.91
2023-04-27T03:27:52.871Z,100903.91
2023-04-27T03:30:19.754Z,100896.34
2023-04-27T03:32:47.613Z,100910.53
2023-04-27T03:35:15.082Z,100904.38
2023-04-27T03:37:41.700Z,100899.25
2023-04-27T03:40:08.858Z,100906.47
2023-04-27T03:42:35.648Z,100906.47
2023-04-27T03:45:06.572Z,100910.19
2023-04-27T03:47:34.078Z,100901.59
2023-04-27T03:50:00.811Z,100906.94
2023-04-27T03:52:27.540Z,100907.88
2023-04-27T03:54:54.163Z,100906.72
2023-04-27T03:57:21.478Z,100907.75
2023-04-27T03:59:48.171Z,100900.19
2023-04-27T04:02:15.257Z,100902.28
2023-04-27T04:04:42.301Z,100901.94
2023-04-27T04:07:09.358Z,100909.72
2023-04-27T04:09:36.226Z,100904.75
2023-04-27T04:12:03.726Z,100909.81
2023-04-27T04:14:30.477Z,100903.31
2023-04-27T04:16:57.433Z,100903.78
2023-04-27T04:19:24.139Z,100906.47
2023-04-27T04:21:50.811Z,100904.75
2023-04-27T04:24:18.848Z,100908.31
2023-04-27T04:26:45.582Z,100900.88
2023-04-27T04:29:12.650Z,100909.97
2023-04-27T04:31:40.482Z,100915.75
2023-04-27T04:34:10.084Z,100917.03
2023-04-27T04:36:36.862Z,100918.56
2023-04-27T04:39:05.444Z,100925.66
2023-04-27T04:41:33.669Z,100932.38
2023-04-27T04:44:00.751Z,100928.31
2023-04-27T04:46:28.526Z,100921.69
2023-04-27T04:48:56.986Z,100923.06
2023-04-27T04:51:23.716Z,100917.59
2023-04-27T04:53:50.475Z,100918.53
2023-04-27T04:56:17.182Z,100920.28
2023-04-27T04:58:43.932Z,100924.13
2023-04-27T05:01:10.843Z,100920.50
2023-04-27T05:03:37.932Z,100912.25
2023-04-27T05:06:04.887Z,100912.81
2023-04-27T05:08:31.635Z,100918.31
2023-04-27T05:10:58.344Z,100918.75
2023-04-27T05:13:25.012Z,100921.88
2023-04-27T05:15:52.140Z,100917.44
2023-04-27T05:18:19.265Z,100917.53
2023-04-27T05:20:45.982Z,100922.44
2023-04-27T05:23:12.688Z,100926.50
2023-04-27T05:25:41.785Z,100924.75
2023-04-27T05:28:09.503Z,100933.44
2023-04-27T05:30:36.921Z,100935.72
2023-04-27T05:33:04.409Z,100949.31
2023-04-27T05:35:32.020Z,100939.50
2023-04-27T05:37:58.743Z,100935.06
2023-04-27T05:40:25.461Z,100944.34
2023-04-27T05:42:52.325Z,100941.28
2023-04-27T05:45:20.764Z,100945.16
2023-04-27T05:47:47.961Z,100942.09
2023-04-27T05:50:14.690Z,100940.41
2023-04-27T05:52:41.406Z,100946.97
2023-04-27T05:55:08.456Z,100945.53
2023-04-27T05:57:35.298Z,100945.34
2023-04-27T06:00:07.318Z,100949.25
2023-04-27T06:02:39.166Z,100952.84
2023-04-27T06:05:07.106Z,100959.91
2023-04-27T06:07:33.992Z,100958.13
2023-04-27T06:10:00.654Z,100955.59
2023-04-27T06:12:27.433Z,100953.59
2023-04-27T06:14:54.063Z,100956.75
2023-04-27T06:17:21.859Z,100954.50
2023-04-27T06:19:48.618Z,100965.06
2023-04-27T06:22:18.061Z,100973.81
2023-04-27T06:24:44.921Z,100974.53
2023-04-27T06:27:11.836Z,100971.75
2023-04-27T06:29:38.476Z,100981.03
2023-04-27T06:32:07.029Z,100986.56
2023-04-27T06:34:35.155Z,100980.16
2023-04-27T06:37:02.418Z,100983.41
2023-04-27T06:39:29.130Z,100989.91
2023-04-27T06:41:55.996Z,100990.47
2023-04-27T06:44:25.054Z,100992.09
2023-04-27T06:46:51.724Z,100994.84
2023-04-27T06:49:18.439Z,100994.94
2023-04-27T06:51:46.694Z,100993.47
2023-04-27T06:54:13.595Z,100989.34
2023-04-27T06:56:40.556Z,100995.38
2023-04-27T06:59:08.333Z,100991.81
2023-04-27T07:01:35.171Z,100994.84
2023-04-27T07:04:01.961Z,100998.38
2023-04-27T07:06:29.117Z,101003.00
2023-04-27T07:08:56.158Z,100995.22
2023-04-27T07:11:23.702Z,101000.09
2023-04-27T07:13:50.615Z,100993.69
2023-04-27T07:16:17.608Z,100989.38
2023-04-27T07:18:44.347Z,101002.34
2023-04-27T07:21:11.182Z,101003.97
2023-04-27T07:23:40.001Z,100993.97
2023-04-27T07:26:07.768Z,100996.94
2023-04-27T07:28:38.187Z,100999.63
2023-04-27T07:31:06.128Z,101000.69
2023-04-27T07:33:33.861Z,101011.75
2023-04-27T07:36:02.683Z,101003.38
2023-04-27T07:38:31.231Z,101000.69
2023-04-27T07:41:05.937Z,101004.75
2023-04-27T07:43:32.738Z,100994.53
2023-04-27T07:45:59.482Z,100991.25
2023-04-27T07:48:28.669Z,100996.59
2023-04-27T07:50:55.804Z,100991.69
2023-04-27T07:53:22.626Z,100988.59
2023-04-27T07:55:49.338Z,100987.91
2023-04-27T07:58:16.167Z,100985.16
2023-04-27T08:00:43.429Z,100978.13
2023-04-27T08:03:10.408Z,100978.44
2023-04-27T08:05:37.611Z,100976.00
2023-04-27T08:08:04.767Z,100980.09
2023-04-27T08:10:31.542Z,100977.28
2023-04-27T08:12:58.222Z,100978.16
2023-04-27T08:15:24.963Z,100976.63
2023-04-27T08:17:51.646Z,100974.53
2023-04-27T08:20:18.425Z,100972.34
2023-04-27T08:22:45.083Z,100961.81
2023-04-27T08:25:11.853Z,100948.72
2023-04-27T08:27:40.161Z,100951.34
2023-04-27T08:30:07.902Z,100952.59
2023-04-27T08:32:34.791Z,100949.88
2023-04-27T08:35:01.605Z,100954.97
2023-04-27T08:37:28.402Z,100933.97
2023-04-27T08:39:54.964Z,100938.78
2023-04-27T08:42:21.750Z,100935.41
2023-04-27T08:44:48.508Z,100943.47
2023-04-27T08:47:15.441Z,100926.25
2023-04-27T08:49:42.944Z,100932.69
2023-04-27T08:52:15.248Z,100931.00
2023-04-27T08:54:41.918Z,100927.28
2023-04-27T08:57:11.844Z,100917.56
2023-04-27T08:59:41.977Z,100921.41
2023-04-27T09:02:20.066Z,100922.25
2023-04-27T09:04:47.138Z,100928.31
2023-04-27T09:07:16.570Z,100924.59
2023-04-27T09:09:44.415Z,100932.09
2023-04-27T09:12:18.867Z,100930.38
2023-04-27T09:15:06.502Z,100926.06
2023-04-27T09:17:33.978Z,100924.63
2023-04-27T09:20:09.067Z,100922.41
2023-04-27T09:22:51.718Z,100915.22
2023-04-27T09:25:28.766Z,100903.72
2023-04-27T09:27:56.613Z,100890.81
2023-04-27T09:30:23.898Z,100897.34
2023-04-27T09:33:04.066Z,100897.81
2023-04-27T09:35:33.951Z,100880.31
2023-04-27T09:38:02.065Z,100883.09
2023-04-27T09:40:31.246Z,100888.47
2023-04-27T09:43:03.953Z,100884.31
2023-04-27T09:45:32.899Z,100879.66
2023-04-27T09:48:01.261Z,100870.06
2023-04-27T09:50:28.091Z,100859.41
2023-04-27T09:52:55.037Z,100853.38
2023-04-27T09:55:28.533Z,100863.72
2023-04-27T09:58:29.678Z,100868.88
2023-04-27T10:01:09.144Z,100860.00
2023-04-27T10:03:54.743Z,100855.16
2023-04-27T10:06:51.934Z,100858.59
2023-04-27T10:09:25.074Z,100858.25
2023-04-27T10:11:53.822Z,100853.69
2023-04-27T10:14:24.604Z,100851.84
2023-04-27T10:16:54.238Z,100848.53
2023-04-27T10:19:22.293Z,100851.31
2023-04-27T10:22:03.880Z,100842.41
2023-04-27T10:24:38.650Z,100848.75
2023-04-27T10:27:16.167Z,100849.22
2023-04-27T10:29:44.654Z,100850.00
2023-04-27T10:32:19.652Z,100849.94
2023-04-27T10:34:48.263Z,100854.50
2023-04-27T10:37:15.918Z,100847.00
2023-04-27T10:39:47.821Z,100850.56
2023-04-27T10:42:28.380Z,100844.81
2023-04-27T10:44:59.149Z,100850.16
2023-04-27T10:47:37.361Z,100833.63
2023-04-27T10:50:11.475Z,100834.97
2023-04-27T10:52:44.568Z,100827.34
2023-04-27T10:55:22.575Z,100826.84
2023-04-27T10:57:54.664Z,100820.72
2023-04-27T11:00:41.512Z,100819.22
2023-04-27T11:03:12.985Z,100821.47
2023-04-27T11:05:41.246Z,100814.31
2023-04-27T11:08:10.891Z,100816.72
2023-04-27T11:11:01.762Z,100818.38
2023-04-27T11:13:28.949Z,100812.72
2023-04-27T11:15:57.877Z,100812.63
2023-04-27T11:18:29.062Z,100805.00
2023-04-27T11:21:08.431Z,100810.56
2023-04-27T11:23:39.721Z,100806.09
2023-04-27T11:26:21.508Z,100809.69
2023-04-27T11:29:00.387Z,100801.88
2023-04-27T11:31:39.627Z,100802.50
2023-04-27T11:34:19.578Z,100803.69
2023-04-27T11:37:14.372Z,100792.53
2023-04-27T11:39:46.656Z,100791.72
2023-04-27T11:42:19.755Z,100795.56
2023-04-27T11:44:58.404Z,100786.03
2023-04-27T11:47:26.037Z,100786.38
2023-04-27T11:49:54.748Z,100787.22
2023-04-27T11:52:22.662Z,100782.75
2023-04-27T11:54:56.471Z,100785.44
2023-04-27T11:57:27.651Z,100781.03
2023-04-27T11:59:55.793Z,100774.13
2023-04-27T12:02:23.364Z,100766.06
2023-04-27T12:04:52.317Z,100773.06
2023-04-27T12:07:19.694Z,100756.94
2023-04-27T12:09:46.882Z,100765.34
2023-04-27T12:12:22.978Z,100759.88
2023-04-27T12:14:50.280Z,100747.78
2023-04-27T12:17:17.800Z,100740.00
2023-04-27T12:19:44.509Z,100743.03
2023-04-27T12:22:11.385Z,100751.50
2023-04-27T12:24:38.170Z,100759.69
2023-04-27T12:27:05.228Z,100753.69
2023-04-27T12:29:32.194Z,100757.81
2023-04-27T12:31:59.741Z,100750.63
2023-04-27T12:34:27.366Z,100751.34
2023-04-27T12:36:54.366Z,100750.34
2023-04-27T12:39:24.870Z,100753.50
2023-04-27T12:41:51.920Z,100755.28
2023-04-27T12:44:19.592Z,100753.81
2023-04-27T12:46:48.540Z,100752.63
2023-04-27T12:49:15.888Z,100755.06
2023-04-27T12:51:42.943Z,100756.91
2023-04-27T12:54:11.219Z,100758.38
2023-04-27T12:56:38.385Z,100751.47
2023-04-27T12:59:06.302Z,100745.97
2023-04-27T13:01:33.658Z,100751.78
2023-04-27T13:04:04.834Z,100751.41
2023-04-27T13:06:32.149Z,100753.38
2023-04-27T13:08:59.595Z,100746.56
2023-04-27T13:11:27.069Z,100747.50
2023-04-27T13:13:55.225Z,100746.06
2023-04-27T13:16:25.343Z,100743.50
2023-04-27T13:18:53.864Z,100747.03
2023-04-27T13:21:21.097Z,100748.41
2023-04-27T13:23:48.173Z,100743.81
2023-04-27T13:26:15.984Z,100741.53
2023-04-27T13:28:43.086Z,100737.19
2023-04-27T13:31:10.303Z,100742.25
2023-04-27T13:33:41.959Z,100745.91
2023-04-27T13:36:12.544Z,100747.06
2023-04-27T13:38:40.443Z,100737.34
2023-04-27T13:41:08.405Z,100735.94
2023-04-27T13:43:35.216Z,100742.09
2023-04-27T13:46:02.555Z,100737.31
2023-04-27T13:48:30.386Z,100739.69
2023-04-27T13:50:57.843Z,100739.63
2023-04-27T13:53:26.445Z,100744.13
2023-04-27T13:55:58.076Z,100739.75
2023-04-27T13:58:27.174Z,100734.94
2023-04-27T14:00:54.641Z,100736.72
2023-04-27T14:03:21.636Z,100745.88
2023-04-27T14:05:50.405Z,100742.00
2023-04-27T14:08:17.707Z,100739.47
2023-04-27T14:10:48.537Z,100744.13
2023-04-27T14:13:15.309Z,100740.09
2023-04-27T14:15:43.211Z,100737.16
2023-04-27T14:18:10.150Z,100744.03
2023-04-27T14:20:38.399Z,100739.56
2023-04-27T14:23:06.968Z,100734.88
2023-04-27T14:25:34.716Z,100747.16
2023-04-27T14:28:03.275Z,100743.03
2023-04-27T14:30:31.611Z,100743.34
2023-04-27T14:32:58.680Z,100742.41
2023-04-27T14:35:25.872Z,100737.06
2023-04-27T14:37:52.685Z,100745.88
2023-04-27T14:40:20.012Z,100739.47
2023-04-27T14:42:47.193Z,100737.59
2023-04-27T14:45:15.858Z,100740.00
2023-04-27T14:47:42.632Z,100740.16
2023-04-27T14:50:09.675Z,100739.84
2023-04-27T14:52:36.398Z,100738.28
2023-04-27T14:55:03.153Z,100739.53
2023-04-27T14:57:29.835Z,100731.66
2023-04-27T14:59:57.157Z,100728.31
2023-04-27T15:02:23.981Z,100734.44
2023-04-27T15:04:50.805Z,100727.25
2023-04-27T15:07:17.557Z,100730.97
2023-04-27T15:09:44.401Z,100722.47
2023-04-27T15:12:11.309Z,100728.28
2023-04-27T15:14:38.130Z,100723.25
2023-04-27T15:17:04.788Z,100726.91
2023-04-27T15:19:31.751Z,100716.84
2023-04-27T15:21:58.593Z,100722.41
2023-04-27T15:24:25.292Z,100709.41
2023-04-27T15:26:52.170Z,100714.44
2023-04-27T15:29:18.869Z,100710.66
2023-04-27T15:31:47.308Z,100704.28
2023-04-27T15:34:14.387Z,100706.88
2023-04-27T15:36:41.254Z,100706.75
2023-04-27T15:39:09.964Z,100694.41
2023-04-27T15:41:37.211Z,100688.84
2023-04-27T15:44:05.116Z,100679.72
2023-04-27T15:46:31.945Z,100685.47
2023-04-27T15:48:58.759Z,100686.75
2023-04-27T15:51:25.502Z,100679.06
2023-04-27T15:53:52.343Z,100679.38
2023-04-27T15:56:19.151Z,100679.06
2023-04-27T15:58:46.276Z,100667.84
2023-04-27T16:01:13.052Z,100666.88
2023-04-27T16:03:40.348Z,100660.66
2023-04-27T16:06:08.582Z,100654.72
2023-04-27T16:08:35.372Z,100665.13
2023-04-27T16:11:02.400Z,100660.00
2023-04-27T16:13:29.392Z,100647.34
2023-04-27T16:15:56.339Z,100655.19
2023-04-27T16:18:23.311Z,100660.00
2023-04-27T16:20:50.033Z,100658.69
2023-04-27T16:23:17.161Z,100653.41
2023-04-27T16:28:10.586Z,100648.59
2023-04-27T16:30:38.338Z,100652.09
2023-04-27T16:33:05.159Z,100652.09
2023-04-27T16:35:33.640Z,100648.09
2023-04-27T16:38:02.961Z,100655.72
2023-04-27T16:40:29.781Z,100652.34
2023-04-27T16:42:56.459Z,100657.44
2023-04-27T16:45:23.156Z,100649.41
2023-04-27T16:47:49.865Z,100658.97
2023-04-27T16:50:17.280Z,100657.66
2023-04-27T16:52:43.966Z,100653.75
2023-04-27T16:55:10.623Z,100645.38
2023-04-27T16:57:37.384Z,100642.38
2023-04-27T17:00:09.857Z,100641.53
2023-04-27T17:02:36.780Z,100639.06
2023-04-27T17:05:04.087Z,100639.53
2023-04-27T17:07:32.819Z,100644.75
2023-04-27T17:09:59.925Z,100648.41
2023-04-27T17:12:26.778Z,100655.22
2023-04-27T17:14:53.667Z,100642.28
2023-04-27T17:17:20.522Z,100646.53
2023-04-27T17:19:47.730Z,100642.66
2023-04-27T17:22:15.123Z,100651.31
2023-04-27T17:24:41.934Z,100647.75
2023-04-27T17:27:12.004Z,100642.31
2023-04-27T17:29:44.311Z,100642.94
2023-04-27T17:32:11.145Z,100645.13
2023-04-27T17:34:38.755Z,100638.22
2023-04-27T17:37:07.101Z,100632.28
2023-04-27T17:39:34.521Z,100628.75
2023-04-27T17:42:01.517Z,100633.09
2023-04-27T17:44:28.522Z,100633.38
2023-04-27T17:46:55.342Z,100632.09
2023-04-27T17:49:22.194Z,100647.16
2023-04-27T17:51:49.224Z,100635.31
2023-04-27T17:54:15.940Z,100642.34
2023-04-27T17:56:42.896Z,100638.50
2023-04-27T17:59:09.783Z,100636.41
2023-04-27T18:01:36.780Z,100638.72
2023-04-27T18:04:05.711Z,100635.41
2023-04-27T18:06:33.321Z,100627.81
2023-04-27T18:09:00.055Z,100639.34
2023-04-27T18:11:26.790Z,100638.41
2023-04-27T18:13:58.194Z,100638.00
2023-04-27T18:16:25.636Z,100632.16
2023-04-27T18:18:52.566Z,100629.81
2023-04-27T18:21:19.377Z,100628.81
2023-04-27T18:23:46.247Z,100630.81
2023-04-27T18:26:13.314Z,100628.19
2023-04-27T18:28:41.741Z,100629.38
2023-04-27T18:31:19.007Z,100626.16
2023-04-27T18:33:46.722Z,100628.16
2023-04-27T18:36:13.563Z,100639.28
2023-04-27T18:38:40.559Z,100634.16
2023-04-27T18:41:07.715Z,100635.56
2023-04-27T18:43:38.285Z,100637.75
2023-04-27T18:46:05.176Z,100645.88
2023-04-27T18:48:32.486Z,100639.94
2023-04-27T18:50:59.484Z,100642.16
2023-04-27T18:53:28.118Z,100638.34
2023-04-27T18:55:55.146Z,100625.91
2023-04-27T18:58:23.726Z,100635.13
2023-04-27T19:00:51.526Z,100630.31
2023-04-27T19:03:18.283Z,100639.03
2023-04-27T19:05:45.574Z,100640.09
2023-04-27T19:08:12.332Z,100647.72
2023-04-27T19:10:41.607Z,100635.28
2023-04-27T19:13:08.635Z,100638.00
2023-04-27T19:15:35.389Z,100632.88
2023-04-27T19:18:09.963Z,100628.88
2023-04-27T19:20:38.602Z,100624.63
2023-04-27T19:23:05.547Z,100620.28
2023-04-27T19:25:32.274Z,100634.94
2023-04-27T19:27:59.078Z,100626.81
2023-04-27T19:30:25.892Z,100629.53
2023-04-27T19:32:54.188Z,100619.00
2023-04-27T19:35:23.695Z,100621.97
2023-04-27T19:37:50.900Z,100617.16
2023-04-27T19:40:18.274Z,100623.19
2023-04-27T19:42:45.243Z,100634.00
2023-04-27T19:45:12.191Z,100634.00
2023-04-27T19:47:39.251Z,100626.19
2023-04-27T19:50:06.675Z,100626.75
2023-04-27T19:52:33.558Z,100625.94
2023-04-27T19:55:00.388Z,100642.78
2023-04-27T19:57:27.171Z,100636.03
2023-04-27T19:59:53.871Z,100627.69
2023-04-27T20:02:21.600Z,100627.44
2023-04-27T20:04:48.882Z,100628.34
2023-04-27T20:07:15.800Z,100625.69
2023-04-27T20:09:42.621Z,100626.34
2023-04-27T20:12:19.385Z,100619.69
2023-04-27T20:14:56.218Z,100614.84
2023-04-27T20:17:25.855Z,100610.84
2023-04-27T20:19:56.556Z,100614.19
2023-04-27T20:22:23.901Z,100613.22
2023-04-27T20:24:51.063Z,100618.91
2023-04-27T20:27:17.976Z,100617.06
2023-04-27T20:29:47.343Z,100619.81
2023-04-27T20:32:14.074Z,100616.97
2023-04-27T20:34:40.969Z,100620.53
2023-04-27T20:37:09.561Z,100630.56
2023-04-27T20:39:36.733Z,100626.63
2023-04-27T20:42:03.830Z,100623.97
2023-04-27T20:44:32.682Z,100621.78
2023-04-27T20:46:59.633Z,100614.19
2023-04-27T20:49:34.249Z,100616.63
2023-04-27T20:52:03.602Z,100611.50
2023-04-27T20:54:33.256Z,100613.41
2023-04-27T20:57:03.855Z,100615.56
2023-04-27T20:59:30.753Z,100609.94
2023-04-27T21:01:57.606Z,100615.34
2023-04-27T21:04:24.439Z,100603.72
2023-04-27T21:06:51.429Z,100599.97
2023-04-27T21:09:18.065Z,100602.94
2023-04-27T21:11:45.525Z,100595.88
2023-04-27T21:14:12.519Z,100591.03
2023-04-27T21:16:39.562Z,100588.84
2023-04-27T21:19:08.688Z,100585.06
2023-04-27T21:21:36.205Z,100592.13
2023-04-27T21:24:08.418Z,100589.22
2023-04-27T21:26:38.294Z,100583.00
2023-04-27T21:29:06.049Z,100585.19
2023-04-27T21:31:33.791Z,100576.56
2023-04-27T21:34:04.641Z,100583.00
2023-04-27T21:36:32.915Z,100576.44
2023-04-27T21:38:59.857Z,100570.53
2023-04-27T21:41:26.783Z,100569.94
2023-04-27T21:43:53.436Z,100574.19
2023-04-27T21:46:20.144Z,100564.41
2023-04-27T21:48:46.793Z,100567.63
2023-04-27T21:51:13.705Z,100571.97
2023-04-27T21:53:40.480Z,100570.34
2023-04-27T21:56:07.495Z,100563.63
2023-04-27T21:58:34.181Z,100560.63
2023-04-27T22:01:01.151Z,100564.66
2023-04-27T22:03:28.726Z,100565.72
2023-04-27T22:05:57.509Z,100552.81
2023-04-27T22:08:24.244Z,100557.97
2023-04-27T22:10:50.930Z,100556.66
2023-04-27T22:13:19.181Z,100551.53
2023-04-27T22:15:47.587Z,100557.47
2023-04-27T22:18:15.452Z,100553.38
2023-04-27T22:20:42.620Z,100561.78
2023-04-27T22:23:09.647Z,100563.38
2023-04-27T22:25:36.745Z,100554.72
2023-04-27T22:28:03.547Z,100556.84
2023-04-27T22:30:31.104Z,100554.66
2023-04-27T22:32:58.081Z,100551.94
2023-04-27T22:35:27.488Z,100553.06
2023-04-27T22:38:01.740Z,100543.84
2023-04-27T22:40:30.519Z,100536.00
2023-04-27T22:42:57.148Z,100540.38
2023-04-27T22:45:24.165Z,100544.53
2023-04-27T22:47:51.069Z,100542.41
2023-04-27T22:50:18.136Z,100545.09
2023-04-27T22:52:44.986Z,100549.44
2023-04-27T22:55:12.447Z,100543.75
2023-04-27T22:57:41.285Z,100535.34
2023-04-27T23:00:12.163Z,100530.53
2023-04-27T23:02:40.015Z,100527.81
2023-04-27T23:05:07.332Z,100523.50
2023-04-27T23:07:34.842Z,100531.31
2023-04-27T23:10:03.037Z,100525.03
2023-04-27T23:12:30.857Z,100523.09
2023-04-27T23:14:58.173Z,100521.44
2023-04-27T23:17:30.706Z,100510.63
2023-04-27T23:19:59.145Z,100516.81
2023-04-27T23:22:26.631Z,100521.16
2023-04-27T23:24:53.939Z,100525.44
2023-04-27T23:27:21.469Z,100513.03
2023-04-27T23:29:48.229Z,100516.53
2023-04-27T23:32:15.194Z,100516.81
2023-04-27T23:34:42.949Z,100520.63
2023-04-27T23:37:09.589Z,100510.91
2023-04-27T23:39:36.251Z,100515.00
2023-04-27T23:42:03.356Z,100517.97
2023-04-27T23:44:30.154Z,100520.97
2023-04-27T23:46:56.883Z,100530.72
2023-04-27T23:49:23.620Z,100535.66
2023-04-27T23:51:52.339Z,100544.56
2023-04-27T23:54:18.988Z,100533.25
2023-04-27T23:56:45.638Z,100527.03
2023-04-27T23:59:12.375Z,100528.44
